createdAt,value
2022-12-11T00:00:52.235Z,14.41
2022-12-11T00:03:19.581Z,14.36
2022-12-11T00:05:46.812Z,14.30
2022-12-11T00:08:14.288Z,14.37
2022-12-11T00:10:49.545Z,14.39
2022-12-11T00:13:16.522Z,14.37
2022-12-11T00:15:43.539Z,14.36
2022-12-11T00:18:14.533Z,14.38
2022-12-11T00:20:41.992Z,14.40
2022-12-11T00:23:09.038Z,14.27
2022-12-11T00:25:36.143Z,14.37
2022-12-11T00:28:03.057Z,14.44
2022-12-11T00:30:29.980Z,14.45
2022-12-11T00:32:56.971Z,14.36
2022-12-11T00:35:23.908Z,14.42
2022-12-11T00:37:50.736Z,14.40
2022-12-11T00:40:17.743Z,14.44
2022-12-11T00:42:44.628Z,14.36
2022-12-11T00:45:11.928Z,14.47
2022-12-11T00:47:39.116Z,14.52
2022-12-11T00:50:06.633Z,14.48
2022-12-11T00:52:33.571Z,14.42
2022-12-11T00:55:00.479Z,14.61
2022-12-11T00:57:27.365Z,14.40
2022-12-11T00:59:54.624Z,14.45
2022-12-11T01:02:21.599Z,14.46
2022-12-11T01:04:48.600Z,14.39
2022-12-11T01:07:15.582Z,14.52
2022-12-11T01:10:00.894Z,14.51
2022-12-11T01:12:28.698Z,14.59
2022-12-11T01:14:55.688Z,14.51
2022-12-11T01:17:22.731Z,14.48
2022-12-11T01:19:49.778Z,14.50
2022-12-11T01:22:16.706Z,14.54
2022-12-11T01:24:43.663Z,14.64
2022-12-11T01:27:10.701Z,14.56
2022-12-11T01:29:37.823Z,14.49
2022-12-11T01:32:05.059Z,14.50
2022-12-11T01:34:33.384Z,14.51
2022-12-11T01:37:00.292Z,14.64
2022-12-11T01:39:27.246Z,14.58
2022-12-11T01:41:58.724Z,14.51
2022-12-11T01:44:25.676Z,14.52
2022-12-11T01:46:54.489Z,14.54
2022-12-11T01:49:26.114Z,14.59
2022-12-11T01:52:01.775Z,14.84
2022-12-11T01:54:29.895Z,14.77
2022-12-11T01:57:01.701Z,14.67
2022-12-11T01:59:31.131Z,14.52
2022-12-11T02:02:30.880Z,14.69
2022-12-11T02:04:58.551Z,14.56
2022-12-11T02:07:25.532Z,14.57
2022-12-11T02:09:52.507Z,14.22
2022-12-11T02:12:21.972Z,14.42
2022-12-11T02:15:16.883Z,14.52
2022-12-11T02:18:16.266Z,13.76
2022-12-11T02:20:45.931Z,14.05
2022-12-11T02:23:12.883Z,14.04
2022-12-11T02:25:58.323Z,13.71
2022-12-11T02:28:41.878Z,13.84
2022-12-11T02:31:26.472Z,13.80
2022-12-11T02:34:02.842Z,13.76
2022-12-11T02:36:34.112Z,13.69
2022-12-11T02:39:03.288Z,13.91
2022-12-11T02:41:31.429Z,13.76
2022-12-11T02:44:00.512Z,13.84
2022-12-11T02:46:28.578Z,13.77
2022-12-11T02:48:56.983Z,13.63
2022-12-11T02:51:32.520Z,13.65
2022-12-11T02:54:00.088Z,13.42
2022-12-11T02:56:42.303Z,13.38
2022-12-11T02:59:15.710Z,13.37
2022-12-11T03:01:43.542Z,13.45
2022-12-11T03:04:10.561Z,13.59
2022-12-11T03:06:42.661Z,13.68
2022-12-11T03:09:10.444Z,13.78
2022-12-11T03:11:37.305Z,13.85
2022-12-11T03:14:04.525Z,13.90
2022-12-11T03:16:36.540Z,13.84
2022-12-11T03:19:21.659Z,13.95
2022-12-11T03:21:58.726Z,13.84
2022-12-11T03:24:50.329Z,13.96
2022-12-11T03:27:20.222Z,13.81
2022-12-11T03:29:57.907Z,13.93
2022-12-11T03:32:31.031Z,14.00
2022-12-11T03:35:08.686Z,13.93
2022-12-11T03:37:38.852Z,13.82
2022-12-11T03:40:16.199Z,13.70
2022-12-11T03:42:47.506Z,13.62
2022-12-11T03:45:16.379Z,13.44
2022-12-11T03:47:45.345Z,13.36
2022-12-11T03:50:16.114Z,13.40
2022-12-11T03:52:46.380Z,13.46
2022-12-11T03:55:16.259Z,13.32
2022-12-11T03:57:43.831Z,13.39
2022-12-11T04:00:14.434Z,13.37
2022-12-11T04:02:42.454Z,13.36
2022-12-11T04:05:10.343Z,13.33
2022-12-11T04:07:37.883Z,13.42
2022-12-11T04:10:05.633Z,13.38
2022-12-11T04:12:32.571Z,13.34
2022-12-11T04:15:02.265Z,13.45
2022-12-11T04:17:53.240Z,13.49
2022-12-11T04:20:39.445Z,13.66
2022-12-11T04:23:36.765Z,13.80
2022-12-11T04:26:10.570Z,13.85
2022-12-11T04:28:38.285Z,13.91
2022-12-11T04:31:05.648Z,14.00
2022-12-11T04:33:32.647Z,14.18
2022-12-11T04:36:01.176Z,14.42
2022-12-11T04:38:28.280Z,14.54
2022-12-11T04:41:02.581Z,14.64
2022-12-11T04:43:29.520Z,14.76
2022-12-11T04:46:04.280Z,14.86
2022-12-11T04:48:31.247Z,14.95
2022-12-11T04:50:58.350Z,15.10
2022-12-11T04:53:25.464Z,15.13
2022-12-11T04:55:52.336Z,15.10
2022-12-11T04:58:19.305Z,15.11
2022-12-11T05:00:46.554Z,15.05
2022-12-11T05:03:13.519Z,15.10
2022-12-11T05:05:40.553Z,15.15
2022-12-11T05:08:08.392Z,15.14
2022-12-11T05:10:35.362Z,15.22
2022-12-11T05:13:02.300Z,15.33
2022-12-11T05:15:29.180Z,15.30
2022-12-11T05:17:56.055Z,15.33
2022-12-11T05:20:25.471Z,15.34
2022-12-11T05:22:52.400Z,15.31
2022-12-11T05:25:19.267Z,15.38
2022-12-11T05:27:46.250Z,15.36
2022-12-11T05:30:13.295Z,15.43
2022-12-11T05:32:40.169Z,15.38
2022-12-11T05:35:07.459Z,15.41
2022-12-11T05:37:34.844Z,15.43
2022-12-11T05:40:02.034Z,15.48
2022-12-11T05:42:29.299Z,15.47
2022-12-11T05:44:56.326Z,15.50
2022-12-11T05:47:23.348Z,15.59
2022-12-11T05:49:51.086Z,15.59
2022-12-11T05:52:18.298Z,15.66
2022-12-11T05:54:45.245Z,15.68
2022-12-11T05:57:12.142Z,15.70
2022-12-11T05:59:39.217Z,15.63
2022-12-11T06:02:06.193Z,15.62
2022-12-11T06:04:33.972Z,15.60
2022-12-11T06:07:01.536Z,15.64
2022-12-11T06:09:28.596Z,15.68
2022-12-11T06:11:55.542Z,15.69
2022-12-11T06:14:22.439Z,15.71
2022-12-11T06:16:50.319Z,15.64
2022-12-11T06:19:18.857Z,15.66
2022-12-11T06:21:46.572Z,15.64
2022-12-11T06:24:13.646Z,15.71
2022-12-11T06:26:40.690Z,15.77
2022-12-11T06:29:10.965Z,15.76
2022-12-11T06:31:40.445Z,15.79
2022-12-11T06:34:07.591Z,15.70
2022-12-11T06:36:34.823Z,15.72
2022-12-11T06:39:01.718Z,15.79
2022-12-11T06:41:28.659Z,15.80
2022-12-11T06:43:55.580Z,15.75
2022-12-11T06:46:22.727Z,15.80
2022-12-11T06:48:50.128Z,15.83
2022-12-11T06:51:22.836Z,15.85
2022-12-11T06:53:54.870Z,15.86
2022-12-11T06:56:22.696Z,15.84
2022-12-11T06:58:50.229Z,15.92
2022-12-11T07:01:20.671Z,15.93
2022-12-11T07:03:48.232Z,15.84
2022-12-11T07:06:15.812Z,15.86
2022-12-11T07:08:43.727Z,15.86
2022-12-11T07:11:14.297Z,15.85
2022-12-11T07:13:44.421Z,15.84
2022-12-11T07:16:13.462Z,15.82
2022-12-11T07:18:42.559Z,15.79
2022-12-11T07:21:12.266Z,15.78
2022-12-11T07:23:39.236Z,15.77
2022-12-11T07:26:08.286Z,15.77
2022-12-11T07:28:35.971Z,15.68
2022-12-11T07:31:07.729Z,15.66
2022-12-11T07:33:35.143Z,15.60
2022-12-11T07:36:07.100Z,15.57
2022-12-11T07:38:34.504Z,15.55
2022-12-11T07:41:06.281Z,15.50
2022-12-11T07:43:33.978Z,15.52
2022-12-11T07:46:05.953Z,15.50
2022-12-11T07:48:35.745Z,15.46
2022-12-11T07:51:33.008Z,15.49
2022-12-11T07:54:06.583Z,15.45
2022-12-11T07:56:34.553Z,15.47
2022-12-11T07:59:03.862Z,15.41
2022-12-11T08:01:33.655Z,15.42
2022-12-11T08:04:00.666Z,15.43
2022-12-11T08:06:30.380Z,15.47
2022-12-11T08:08:58.960Z,15.52
2022-12-11T08:11:26.853Z,15.57
2022-12-11T08:13:53.939Z,15.49
2022-12-11T08:16:21.347Z,15.61
2022-12-11T08:18:48.920Z,15.62
2022-12-11T08:21:18.630Z,15.60
2022-12-11T08:23:45.983Z,15.57
2022-12-11T08:26:18.878Z,15.59
2022-12-11T08:28:45.892Z,15.66
2022-12-11T08:31:14.747Z,15.70
2022-12-11T08:33:42.494Z,15.74
2022-12-11T08:36:13.030Z,15.86
2022-12-11T08:38:41.176Z,15.91
2022-12-11T08:41:12.973Z,15.90
2022-12-11T08:43:40.485Z,15.99
2022-12-11T08:46:07.542Z,16.04
2022-12-11T08:48:36.736Z,16.08
2022-12-11T08:51:09.410Z,16.22
2022-12-11T08:53:36.369Z,16.23
2022-12-11T08:56:04.851Z,16.32
2022-12-11T08:58:31.763Z,16.20
2022-12-11T09:00:58.803Z,16.47
2022-12-11T09:03:26.214Z,16.32
2022-12-11T09:05:53.135Z,16.30
2022-12-11T09:08:20.136Z,16.36
2022-12-11T09:10:47.070Z,16.35
2022-12-11T09:13:13.929Z,16.42
2022-12-11T09:15:41.957Z,16.40
2022-12-11T09:18:09.274Z,16.41
2022-12-11T09:20:36.733Z,16.42
2022-12-11T09:23:03.835Z,16.48
2022-12-11T09:25:30.740Z,16.57
2022-12-11T09:27:57.828Z,16.74
2022-12-11T09:30:24.790Z,16.58
2022-12-11T09:32:53.197Z,16.51
2022-12-11T09:35:20.185Z,16.48
2022-12-11T09:37:47.103Z,16.52
2022-12-11T09:40:14.553Z,16.65
2022-12-11T09:42:53.212Z,16.66
2022-12-11T10:17:20.221Z,16.08
2022-12-11T10:19:48.432Z,16.32
2022-12-11T10:22:24.824Z,16.56
2022-12-11T10:25:10.698Z,16.73
2022-12-11T10:27:40.642Z,16.76
2022-12-11T10:30:20.922Z,16.81
2022-12-11T10:33:00.159Z,16.97
2022-12-11T10:35:33.950Z,17.01
2022-12-11T10:38:14.783Z,16.99
2022-12-11T10:40:51.673Z,17.07
2022-12-11T10:43:19.318Z,17.07
2022-12-11T10:45:53.942Z,16.90
2022-12-11T10:48:20.974Z,16.92
2022-12-11T10:50:58.166Z,16.82
2022-12-11T10:53:26.187Z,16.78
2022-12-11T10:55:54.018Z,16.84
2022-12-11T10:58:24.348Z,16.79
2022-12-11T11:01:14.488Z,16.76
2022-12-11T11:04:14.565Z,16.90
2022-12-11T11:06:41.847Z,17.05
2022-12-11T11:09:34.421Z,17.00
2022-12-11T11:12:07.594Z,17.13
2022-12-11T11:14:35.163Z,17.11
2022-12-11T11:17:02.141Z,17.16
2022-12-11T11:19:28.984Z,17.29
2022-12-11T11:21:59.198Z,17.26
2022-12-11T11:24:38.174Z,17.21
2022-12-11T11:27:33.033Z,17.13
2022-12-11T11:30:11.001Z,17.17
2022-12-11T11:32:40.017Z,17.22
2022-12-11T11:35:13.132Z,17.25
2022-12-11T11:37:45.004Z,17.28
2022-12-11T11:40:19.118Z,17.37
2022-12-11T11:42:50.055Z,17.37
2022-12-11T11:45:24.558Z,17.40
2022-12-11T11:48:11.632Z,17.46
2022-12-11T11:50:45.014Z,17.44
2022-12-11T11:53:25.792Z,17.27
2022-12-11T11:56:21.458Z,17.18
2022-12-11T11:59:05.840Z,17.23
2022-12-11T12:01:33.284Z,17.33
2022-12-11T12:04:02.808Z,17.36
2022-12-11T12:06:57.689Z,17.44
2022-12-11T12:09:24.674Z,17.42
2022-12-11T12:12:04.211Z,17.49
2022-12-11T12:17:56.284Z,17.38
2022-12-11T12:20:32.806Z,17.36
2022-12-11T12:23:08.897Z,17.48
2022-12-11T12:25:45.561Z,17.37
2022-12-11T12:28:39.707Z,17.36
2022-12-11T12:31:09.669Z,17.45
2022-12-11T12:33:48.081Z,17.52
2022-12-11T12:36:35.393Z,17.62
2022-12-11T12:39:31.524Z,17.70
2022-12-11T12:42:07.707Z,17.61
2022-12-11T12:44:54.225Z,17.68
2022-12-11T12:47:22.820Z,17.63
2022-12-11T12:49:51.410Z,17.77
2022-12-11T12:52:30.023Z,17.48
2022-12-11T12:55:14.298Z,17.46
2022-12-11T12:58:12.609Z,17.57
2022-12-11T13:00:44.199Z,17.51
2022-12-11T13:03:22.885Z,17.56
2022-12-11T13:06:08.751Z,17.34
2022-12-11T13:08:50.880Z,17.33
2022-12-11T13:11:20.131Z,17.42
2022-12-11T13:14:07.687Z,17.42
2022-12-11T13:16:38.058Z,17.35
2022-12-11T13:19:26.937Z,17.39
2022-12-11T13:22:17.784Z,17.35
2022-12-11T13:24:49.069Z,17.32
2022-12-11T13:27:36.559Z,17.17
2022-12-11T13:30:15.178Z,17.14
2022-12-11T13:33:29.274Z,17.09
2022-12-11T13:36:17.735Z,17.05
2022-12-11T13:39:23.357Z,17.19
2022-12-11T13:41:57.666Z,17.01
2022-12-11T13:44:30.999Z,17.11
2022-12-11T13:47:00.499Z,17.17
2022-12-11T13:49:34.144Z,16.99
2022-12-11T13:52:01.913Z,16.90
2022-12-11T13:54:30.337Z,16.95
2022-12-11T13:57:07.835Z,16.97
2022-12-11T13:59:42.876Z,16.73
2022-12-11T14:02:21.977Z,16.74
2022-12-11T14:04:52.070Z,16.63
2022-12-11T14:07:26.225Z,16.58
2022-12-11T14:09:59.346Z,16.53
2022-12-11T14:12:26.603Z,16.40
2022-12-11T14:14:57.084Z,16.44
2022-12-11T14:17:28.904Z,16.44
2022-12-11T14:19:58.449Z,16.42
2022-12-11T14:22:28.090Z,16.37
2022-12-11T14:25:00.663Z,16.32
2022-12-11T14:27:27.944Z,16.23
2022-12-11T14:29:55.564Z,16.13
2022-12-11T14:32:40.689Z,16.00
2022-12-11T14:35:21.953Z,15.89
2022-12-11T14:37:49.443Z,16.00
2022-12-11T14:40:18.978Z,15.96
2022-12-11T14:42:54.487Z,15.89
2022-12-11T14:45:32.546Z,15.88
2022-12-11T14:48:01.533Z,15.80
2022-12-11T14:50:52.138Z,15.83
2022-12-11T14:53:33.506Z,15.62
2022-12-11T14:56:06.732Z,15.69
2022-12-11T14:58:41.266Z,15.58
2022-12-11T15:01:22.548Z,15.50
2022-12-11T15:03:49.811Z,15.45
2022-12-11T15:06:26.052Z,15.39
2022-12-11T15:08:53.196Z,15.46
2022-12-11T15:11:21.168Z,15.34
2022-12-11T15:13:54.622Z,15.38
2022-12-11T15:16:24.117Z,15.42
2022-12-11T15:18:53.799Z,15.41
2022-12-11T15:21:32.309Z,15.36
2022-12-11T15:24:01.776Z,15.37
2022-12-11T15:26:41.553Z,15.35
2022-12-11T15:29:37.541Z,15.23
2022-12-11T15:32:18.689Z,15.29
2022-12-11T15:35:00.041Z,15.21
2022-12-11T15:37:32.953Z,15.12
2022-12-11T15:40:02.004Z,15.14
2022-12-11T15:42:35.518Z,15.08
2022-12-11T15:45:06.658Z,15.03
2022-12-11T15:47:33.568Z,15.14
2022-12-11T15:50:07.808Z,14.94
2022-12-11T15:52:34.922Z,14.92
2022-12-11T15:55:01.897Z,14.81
2022-12-11T15:57:28.871Z,14.78
2022-12-11T15:59:56.187Z,14.71
2022-12-11T16:02:24.488Z,14.68
2022-12-11T16:04:51.460Z,14.75
2022-12-11T16:07:21.272Z,14.50
2022-12-11T16:09:48.608Z,14.47
2022-12-11T16:12:16.116Z,14.43
2022-12-11T16:14:44.908Z,14.44
2022-12-11T16:17:14.053Z,14.39
2022-12-11T16:19:42.514Z,14.35
2022-12-11T16:22:10.660Z,14.31
2022-12-11T16:24:38.664Z,14.27
2022-12-11T16:27:06.294Z,14.23
2022-12-11T16:29:37.886Z,14.16
2022-12-11T16:32:07.203Z,14.09
2022-12-11T16:34:36.008Z,14.12
2022-12-11T16:37:03.344Z,14.03
2022-12-11T16:39:30.275Z,14.03
2022-12-11T16:41:57.448Z,14.01
2022-12-11T16:44:26.166Z,14.02
2022-12-11T16:46:54.025Z,13.96
2022-12-11T16:49:21.560Z,13.90
2022-12-11T16:51:49.728Z,13.88
2022-12-11T16:54:17.888Z,13.94
2022-12-11T16:56:45.526Z,13.87
2022-12-11T16:59:13.081Z,14.02
2022-12-11T17:01:40.702Z,13.90
2022-12-11T17:04:08.056Z,13.95
2022-12-11T17:06:35.097Z,14.10
2022-12-11T17:09:02.079Z,13.99
2022-12-11T17:11:29.241Z,13.92
2022-12-11T17:13:59.996Z,13.94
2022-12-11T17:16:30.467Z,14.11
2022-12-11T17:18:58.392Z,14.11
2022-12-11T17:21:25.798Z,14.08
2022-12-11T17:23:53.107Z,14.08
2022-12-11T17:26:20.713Z,14.06
2022-12-11T17:28:47.926Z,13.94
2022-12-11T17:31:18.109Z,13.84
2022-12-11T17:33:46.646Z,13.85
2022-12-11T17:36:17.263Z,13.60
2022-12-11T17:38:44.307Z,13.68
2022-12-11T17:41:19.799Z,13.78
2022-12-11T17:43:52.167Z,13.74
2022-12-11T17:46:20.449Z,13.70
2022-12-11T17:48:48.757Z,13.69
2022-12-11T17:51:21.478Z,13.83
2022-12-11T17:53:48.600Z,13.87
2022-12-11T17:56:16.699Z,13.90
2022-12-11T17:58:43.944Z,13.97
2022-12-11T18:01:13.442Z,14.09
2022-12-11T18:03:41.026Z,14.05
2022-12-11T18:06:13.911Z,14.10
2022-12-11T18:08:42.115Z,14.33
2022-12-11T18:11:12.030Z,14.41
2022-12-11T18:13:39.455Z,14.19
2022-12-11T18:16:24.788Z,13.98
2022-12-11T18:18:52.442Z,14.14
2022-12-11T18:21:22.549Z,14.03
2022-12-11T18:23:50.438Z,14.01
2022-12-11T18:26:19.235Z,13.81
2022-12-11T18:28:47.770Z,13.93
2022-12-11T18:31:15.468Z,13.85
2022-12-11T18:33:44.288Z,13.82
2022-12-11T18:36:14.147Z,13.83
2022-12-11T18:38:42.921Z,13.70
2022-12-11T18:41:11.861Z,13.59
2022-12-11T18:43:41.225Z,13.60
2022-12-11T18:46:14.334Z,13.66
2022-12-11T18:48:45.495Z,13.54
2022-12-11T18:51:17.240Z,13.62
2022-12-11T18:53:44.294Z,13.67
2022-12-11T18:56:16.300Z,13.83
2022-12-11T18:58:44.064Z,13.63
2022-12-11T19:01:19.186Z,13.15
2022-12-11T19:03:47.315Z,12.02
2022-12-11T19:06:17.447Z,11.39
2022-12-11T19:08:44.857Z,11.19
2022-12-11T19:11:19.699Z,10.78
2022-12-11T19:13:47.361Z,10.55
2022-12-11T19:16:16.506Z,10.43
2022-12-11T19:18:44.120Z,10.26
2022-12-11T19:21:12.732Z,10.18
2022-12-11T19:23:40.612Z,10.03
2022-12-11T19:26:14.416Z,9.94
2022-12-11T19:28:42.448Z,9.91
2022-12-11T19:31:11.157Z,9.78
2022-12-11T19:33:39.914Z,9.57
2022-12-11T19:36:10.048Z,9.49
2022-12-11T19:38:38.937Z,9.39
2022-12-11T19:41:17.516Z,9.19
2022-12-11T19:43:44.769Z,8.92
2022-12-11T19:46:13.480Z,8.89
2022-12-11T19:48:42.135Z,8.68
2022-12-11T19:51:15.286Z,8.48
2022-12-11T19:53:43.656Z,8.23
2022-12-11T19:56:11.800Z,8.13
2022-12-11T19:58:39.149Z,8.02
2022-12-11T20:01:07.522Z,7.83
2022-12-11T20:03:35.012Z,7.64
2022-12-11T20:06:07.569Z,7.34
2022-12-11T20:08:44.605Z,6.88
2022-12-11T20:11:17.810Z,6.65
2022-12-11T20:13:46.897Z,6.49
2022-12-11T20:16:14.526Z,6.34
2022-12-11T20:18:41.814Z,6.30
2022-12-11T20:21:12.576Z,6.26
2022-12-11T20:23:40.727Z,6.23
2022-12-11T20:26:23.023Z,6.24
2022-12-11T20:28:52.166Z,6.26
2022-12-11T20:31:25.633Z,6.34
2022-12-11T20:33:53.614Z,6.36
2022-12-11T20:36:22.359Z,6.29
2022-12-11T20:38:49.763Z,6.28
2022-12-11T20:41:19.693Z,6.29
2022-12-11T20:43:49.131Z,6.29
2022-12-11T20:46:17.916Z,6.33
2022-12-11T20:48:45.548Z,6.38
2022-12-11T20:51:18.557Z,6.47
2022-12-11T20:53:56.619Z,6.54
2022-12-11T20:56:24.955Z,6.47
2022-12-11T20:58:52.025Z,6.44
2022-12-11T21:01:24.098Z,6.48
2022-12-11T21:03:52.737Z,6.49
2022-12-11T21:06:20.307Z,6.46
2022-12-11T21:08:47.332Z,6.42
2022-12-11T21:11:14.506Z,6.43
2022-12-11T21:13:42.005Z,6.38
2022-12-11T21:16:09.849Z,6.35
2022-12-11T21:18:36.898Z,6.30
2022-12-11T21:21:04.676Z,6.23
2022-12-11T21:23:31.756Z,6.20
2022-12-11T21:25:58.832Z,6.21
2022-12-11T21:28:30.645Z,6.17
2022-12-11T21:31:02.718Z,6.12
2022-12-11T21:33:29.726Z,6.12
2022-12-11T21:35:58.529Z,6.09
2022-12-11T21:38:25.683Z,6.11
2022-12-11T21:40:53.490Z,6.15
2022-12-11T21:43:20.697Z,6.24
2022-12-11T21:46:03.498Z,6.18
2022-12-11T21:48:31.030Z,6.07
2022-12-11T21:51:11.264Z,6.07
2022-12-11T21:53:38.548Z,6.03
2022-12-11T21:56:09.535Z,6.22
2022-12-11T21:58:38.018Z,6.26
2022-12-11T22:01:07.022Z,6.30
2022-12-11T22:03:33.964Z,6.29
2022-12-11T22:06:00.886Z,6.35
2022-12-11T22:08:28.064Z,6.26
2022-12-11T22:10:55.719Z,6.22
2022-12-11T22:13:23.437Z,6.05
2022-12-11T22:15:52.337Z,6.03
2022-12-11T22:18:19.974Z,5.92
2022-12-11T22:20:47.308Z,5.88
2022-12-11T22:23:14.376Z,5.91
2022-12-11T22:25:41.454Z,6.14
2022-12-11T22:28:08.287Z,5.94
2022-12-11T22:30:35.236Z,5.78
2022-12-11T22:33:02.161Z,5.60
2022-12-11T22:35:29.133Z,5.55
2022-12-11T22:37:56.021Z,5.52
2022-12-11T22:40:23.214Z,5.49
2022-12-11T22:42:50.158Z,5.37
2022-12-11T22:45:17.160Z,5.38
2022-12-11T22:47:44.183Z,5.31
2022-12-11T22:50:15.683Z,5.32
2022-12-11T22:52:45.412Z,5.25
2022-12-11T22:55:12.671Z,5.24
2022-12-11T22:57:39.820Z,5.25
2022-12-11T23:00:10.274Z,5.22
2022-12-11T23:02:38.020Z,5.19
2022-12-11T23:05:05.903Z,5.19
2022-12-11T23:07:33.285Z,5.13
2022-12-11T23:10:00.272Z,5.10
2022-12-11T23:12:27.337Z,5.01
2022-12-11T23:14:54.253Z,5.01
2022-12-11T23:17:21.152Z,5.01
2022-12-11T23:19:48.064Z,4.99
2022-12-11T23:22:15.021Z,5.07
2022-12-11T23:24:42.058Z,4.97
2022-12-11T23:27:09.552Z,4.92
2022-12-11T23:29:37.763Z,4.85
2022-12-11T23:32:05.610Z,4.78
2022-12-11T23:34:32.463Z,4.73
2022-12-11T23:36:59.404Z,4.74
2022-12-11T23:39:26.322Z,4.69
2022-12-11T23:41:53.187Z,4.66
2022-12-11T23:44:20.052Z,4.63
2022-12-11T23:46:47.019Z,4.63
2022-12-11T23:49:13.892Z,4.60
2022-12-11T23:51:42.231Z,4.61
2022-12-11T23:54:09.123Z,4.59
2022-12-11T23:56:35.964Z,4.58
2022-12-11T23:59:02.929Z,4.53
